Time;durP1;ratioP1;P1;durP2;ratioP2;P2;SDS_P1;SDS_P2;PMS_P1;PMS_P2;Temp;Humidity;BMP_temperature;BMP_pressure;BME280_temperature;BME280_humidity;BME280_pressure;Samples;Min_cycle;Max_cycle;Signal;HPM_P1;HPM_P2
2023/03/06 00:00:50;;;;;;;10.53;9.93;;;3.30;99.90;;;;;;4993474;28;20181;-67
2023/03/06 00:03:16;;;;;;;12.10;10.40;;;3.40;99.90;;;;;;4991296;28;20286;-66
2023/03/06 00:05:42;;;;;;;10.47;9.63;;;3.40;99.90;;;;;;4993161;28;20236;-67
2023/03/06 00:08:08;;;;;;;10.90;9.93;;;3.40;99.90;;;;;;4992982;28;20243;-66
2023/03/06 00:10:33;;;;;;;9.70;8.90;;;3.40;99.90;;;;;;4992869;28;20173;-67
2023/03/06 00:13:03;;;;;;;15.50;10.97;;;3.30;99.90;;;;;;4993185;28;20255;-67
2023/03/06 00:15:28;;;;;;;9.73;8.90;;;3.30;99.90;;;;;;4993088;28;20613;-66
2023/03/06 00:17:55;;;;;;;10.30;9.30;;;3.30;99.90;;;;;;4992885;28;20296;-66
2023/03/06 00:20:21;;;;;;;9.63;8.63;;;3.30;99.90;;;;;;4992597;28;20177;-66
2023/03/06 00:22:47;;;;;;;10.20;9.20;;;3.20;99.90;;;;;;4992883;28;20207;-66
2023/03/06 00:25:16;;;;;;;10.33;9.37;;;3.20;99.90;;;;;;4992941;28;20215;-66
2023/03/06 00:27:41;;;;;;;10.00;9.27;;;3.20;99.90;;;;;;4992808;28;20184;-67
2023/03/06 00:30:10;;;;;;;9.07;8.47;;;3.20;99.90;;;;;;4992540;28;20173;-65
2023/03/06 00:32:35;;;;;;;10.37;9.47;;;3.20;99.90;;;;;;4992717;28;20195;-67
2023/03/06 00:35:01;;;;;;;10.47;9.67;;;3.20;99.90;;;;;;4992851;28;20259;-66
2023/03/06 00:37:26;;;;;;;10.53;9.63;;;3.20;99.90;;;;;;4990192;28;20604;-66
2023/03/06 00:39:52;;;;;;;9.07;8.37;;;3.20;99.90;;;;;;4992389;28;20275;-66
2023/03/06 00:42:18;;;;;;;10.00;9.17;;;3.20;99.90;;;;;;4992303;28;20677;-67
2023/03/06 00:44:44;;;;;;;10.10;9.47;;;3.10;99.90;;;;;;4992464;28;20252;-66
2023/03/06 00:47:11;;;;;;;10.67;9.67;;;3.20;99.90;;;;;;4992495;28;20215;-67
2023/03/06 00:49:36;;;;;;;11.60;10.47;;;3.20;99.90;;;;;;4992044;28;20212;-66
2023/03/06 00:52:02;;;;;;;11.37;10.37;;;3.20;99.90;;;;;;4992490;28;20169;-66
2023/03/06 00:54:28;;;;;;;11.97;10.90;;;3.20;99.90;;;;;;4991920;28;20704;-67
2023/03/06 00:56:53;;;;;;;10.70;10.00;;;3.20;99.90;;;;;;4992407;28;20177;-67
2023/03/06 00:59:19;;;;;;;13.40;12.40;;;3.30;99.90;;;;;;4992179;28;20204;-67
2023/03/06 01:01:45;;;;;;;13.43;12.13;;;3.30;99.90;;;;;;4992126;28;20659;-66
2023/03/06 01:04:11;;;;;;;12.10;11.00;;;3.30;99.90;;;;;;4992011;28;20216;-66
2023/03/06 01:06:36;;;;;;;12.43;11.43;;;3.30;99.90;;;;;;4991676;28;20204;-66
2023/03/06 01:09:02;;;;;;;12.60;11.63;;;3.40;99.90;;;;;;4991509;28;20255;-66
2023/03/06 01:11:28;;;;;;;11.43;10.43;;;3.40;99.90;;;;;;4989946;28;20195;-66
2023/03/06 01:13:54;;;;;;;13.77;11.70;;;3.40;99.90;;;;;;4992190;28;20627;-67
2023/03/06 01:16:20;;;;;;;12.53;11.37;;;3.40;99.90;;;;;;4990408;28;20693;-66
2023/03/06 01:18:46;;;;;;;13.67;12.43;;;3.40;99.90;;;;;;4992016;28;20192;-66
2023/03/06 01:21:12;;;;;;;13.90;12.63;;;3.40;99.90;;;;;;4991555;28;20267;-67
2023/03/06 01:23:38;;;;;;;12.57;11.60;;;3.30;99.90;;;;;;4991977;28;20287;-66
2023/03/06 01:26:04;;;;;;;16.20;12.80;;;3.30;99.90;;;;;;4991859;28;20702;-67
2023/03/06 01:28:30;;;;;;;12.13;10.93;;;3.20;99.90;;;;;;4991760;28;20574;-66
2023/03/06 01:30:56;;;;;;;10.20;9.33;;;3.10;99.90;;;;;;4991505;28;20237;-66
2023/03/06 01:33:22;;;;;;;14.57;11.60;;;3.10;99.90;;;;;;4991911;28;20177;-66
2023/03/06 01:35:47;;;;;;;14.93;11.60;;;3.00;99.90;;;;;;4991753;28;20246;-67
2023/03/06 01:38:13;;;;;;;11.37;9.93;;;3.00;99.90;;;;;;4991592;28;20560;-66
2023/03/06 01:40:39;;;;;;;14.83;10.60;;;3.00;99.90;;;;;;4991118;28;20247;-66
2023/03/06 01:43:27;;;;;;;16.40;10.03;;;3.00;99.90;;;;;;4989817;28;20209;-66
2023/03/06 01:46:27;;;;;;;11.63;10.57;;;3.00;99.90;;;;;;4991791;28;20227;-67
2023/03/06 01:49:10;;;;;;;10.73;9.50;;;3.00;99.90;;;;;;4990295;28;20201;-67
2023/03/06 01:51:56;;;;;;;11.17;10.17;;;3.00;99.90;;;;;;4991566;28;20181;-66
2023/03/06 01:54:38;;;;;;;11.00;10.03;;;2.90;99.90;;;;;;4991794;28;20630;-67
2023/03/06 01:57:10;;;;;;;10.73;9.83;;;2.90;99.90;;;;;;4991686;28;20191;-66
2023/03/06 01:59:39;;;;;;;11.53;9.60;;;2.80;99.90;;;;;;4991416;28;20197;-67
2023/03/06 02:02:07;;;;;;;11.57;9.87;;;2.80;99.90;;;;;;4990237;28;20185;-67
2023/03/06 02:04:34;;;;;;;11.47;10.23;;;2.80;99.90;;;;;;4990201;28;20220;-66
2023/03/06 02:07:05;;;;;;;8.87;8.17;;;2.80;99.90;;;;;;4991413;28;20650;-66
2023/03/06 02:09:33;;;;;;;11.50;10.43;;;2.80;99.90;;;;;;4991677;28;20709;-67
2023/03/06 02:11:59;;;;;;;10.57;9.50;;;2.80;99.90;;;;;;4991271;28;20209;-67
2023/03/06 02:14:25;;;;;;;11.63;10.53;;;2.80;99.90;;;;;;4991250;28;20267;-66
2023/03/06 02:16:51;;;;;;;13.97;10.37;;;2.80;99.90;;;;;;4989800;28;20173;-67
2023/03/06 02:19:57;;;;;;;11.83;10.73;;;2.80;99.90;;;;;;4991458;28;20346;-67
2023/03/06 02:22:28;;;;;;;12.60;10.90;;;2.80;99.90;;;;;;4984871;28;20323;-67
2023/03/06 02:25:02;;;;;;;12.60;11.53;;;2.80;99.90;;;;;;4995418;28;20169;-67
2023/03/06 02:27:29;;;;;;;12.03;10.97;;;2.80;99.90;;;;;;4994878;28;20195;-66
2023/03/06 02:29:54;;;;;;;19.80;11.10;;;2.80;99.90;;;;;;4994266;28;20200;-67
2023/03/06 02:32:20;;;;;;;12.27;11.07;;;2.80;99.90;;;;;;4994818;28;20213;-66
2023/03/06 02:34:53;;;;;;;10.47;9.47;;;2.80;99.90;;;;;;4995344;28;20260;-66
2023/03/06 02:37:20;;;;;;;13.33;10.93;;;2.90;99.90;;;;;;4994775;28;20542;-66
2023/03/06 02:39:50;;;;;;;12.03;11.03;;;2.90;99.90;;;;;;4995029;28;20211;-66
2023/03/06 02:42:22;;;;;;;14.77;12.27;;;2.90;99.90;;;;;;4994803;28;20701;-66
2023/03/06 02:44:48;;;;;;;11.10;10.20;;;2.90;99.90;;;;;;4993951;28;20271;-67
2023/03/06 02:47:14;;;;;;;12.57;11.13;;;2.90;99.90;;;;;;4994925;28;20180;-66
2023/03/06 02:49:39;;;;;;;12.00;10.83;;;2.90;99.90;;;;;;4992957;28;20227;-67
2023/03/06 02:52:06;;;;;;;11.80;10.77;;;2.90;99.90;;;;;;4994768;28;20196;-67
2023/03/06 02:54:32;;;;;;;13.57;11.53;;;2.90;99.90;;;;;;4993297;28;20579;-67
2023/03/06 02:56:57;;;;;;;11.47;10.27;;;2.90;99.90;;;;;;4994566;28;20196;-67
2023/03/06 02:59:23;;;;;;;13.20;11.87;;;2.90;99.90;;;;;;4994088;28;20209;-66
2023/03/06 03:01:48;;;;;;;13.30;10.10;;;2.90;99.90;;;;;;4994547;28;20200;-66
2023/03/06 03:04:14;;;;;;;14.93;11.43;;;2.90;99.90;;;;;;4994178;28;20212;-65
2023/03/06 03:06:40;;;;;;;12.77;11.47;;;2.90;99.90;;;;;;4994178;28;20188;-67
2023/03/06 03:09:06;;;;;;;12.70;10.80;;;2.90;99.90;;;;;;4994285;28;20291;-67
2023/03/06 03:11:31;;;;;;;12.70;11.40;;;2.90;99.90;;;;;;4993939;28;20520;-66
2023/03/06 03:13:57;;;;;;;15.00;11.33;;;2.90;99.90;;;;;;4993219;28;20184;-67
2023/03/06 03:16:23;;;;;;;12.80;11.57;;;3.00;99.90;;;;;;4993838;28;20220;-67
2023/03/06 03:18:50;;;;;;;11.53;10.10;;;2.90;99.90;;;;;;4994049;28;20693;-67
2023/03/06 03:21:16;;;;;;;10.60;9.50;;;2.90;99.90;;;;;;4991639;28;20188;-66
2023/03/06 03:23:42;;;;;;;14.47;13.03;;;2.90;99.90;;;;;;4993740;28;20209;-67
2023/03/06 03:26:14;;;;;;;12.33;11.10;;;3.00;99.90;;;;;;4993827;28;20184;-66
2023/03/06 03:28:40;;;;;;;12.87;11.10;;;3.00;99.90;;;;;;4993900;28;20200;-67
2023/03/06 03:31:07;;;;;;;12.50;10.17;;;3.00;99.90;;;;;;4993668;28;20177;-65
2023/03/06 03:33:33;;;;;;;12.80;11.50;;;3.00;99.90;;;;;;4993172;28;20188;-67
2023/03/06 03:36:01;;;;;;;11.37;10.33;;;3.00;99.90;;;;;;4993992;28;20183;-66
2023/03/06 03:38:27;;;;;;;15.37;10.30;;;3.10;99.90;;;;;;4993244;28;20240;-66
2023/03/06 03:40:53;;;;;;;16.97;13.07;;;3.10;99.90;;;;;;4993650;28;20255;-67
2023/03/06 03:43:18;;;;;;;14.20;10.67;;;3.10;99.90;;;;;;4993281;28;20344;-66
2023/03/06 03:45:44;;;;;;;13.50;12.00;;;3.10;99.90;;;;;;4994081;28;20173;-66
2023/03/06 03:48:10;;;;;;;21.33;12.90;;;3.10;99.90;;;;;;4993400;28;20298;-66
2023/03/06 03:50:35;;;;;;;13.10;11.77;;;3.20;99.90;;;;;;4993398;28;20419;-67
2023/03/06 03:53:01;;;;;;;15.90;12.60;;;3.20;99.90;;;;;;4993529;28;20184;-67
2023/03/06 03:55:27;;;;;;;16.40;12.00;;;3.20;99.90;;;;;;4991392;28;20189;-66
2023/03/06 03:57:52;;;;;;;18.57;11.27;;;3.20;99.90;;;;;;4993250;28;20244;-66
2023/03/06 04:00:18;;;;;;;13.50;12.07;;;3.20;99.90;;;;;;4993005;28;20197;-66
2023/03/06 04:02:44;;;;;;;18.27;11.60;;;3.30;99.90;;;;;;4993288;28;20273;-67
2023/03/06 04:05:13;;;;;;;16.00;13.40;;;3.30;99.90;;;;;;4993261;28;20224;-66
2023/03/06 04:07:40;;;;;;;12.87;11.53;;;3.30;99.90;;;;;;4991636;28;20177;-66
2023/03/06 04:10:07;;;;;;;13.90;12.00;;;3.30;99.90;;;;;;4993018;28;20176;-67
2023/03/06 04:12:32;;;;;;;17.40;11.00;;;3.30;99.90;;;;;;4992618;28;20200;-67
2023/03/06 04:14:58;;;;;;;14.10;11.70;;;3.30;99.90;;;;;;4993326;28;20627;-66
2023/03/06 04:17:25;;;;;;;16.13;11.07;;;3.30;99.90;;;;;;4992771;28;20181;-67
2023/03/06 04:19:50;;;;;;;16.77;13.13;;;3.30;99.90;;;;;;4992805;28;20642;-66
2023/03/06 04:22:16;;;;;;;24.73;13.93;;;3.30;99.90;;;;;;4992575;28;20187;-67
2023/03/06 04:24:42;;;;;;;18.57;13.73;;;3.30;99.90;;;;;;4992452;28;20691;-67
2023/03/06 04:27:07;;;;;;;17.50;13.73;;;3.30;99.90;;;;;;4990775;28;20213;-66
2023/03/06 04:29:33;;;;;;;18.17;12.77;;;3.20;99.90;;;;;;4991102;28;20567;-66
2023/03/06 04:31:59;;;;;;;17.43;13.83;;;3.20;99.90;;;;;;4992660;28;20209;-66
2023/03/06 04:34:24;;;;;;;12.70;10.23;;;3.20;99.90;;;;;;4992565;28;20602;-66
2023/03/06 04:36:50;;;;;;;13.93;11.40;;;3.10;99.90;;;;;;4991737;28;20533;-67
2023/03/06 04:39:15;;;;;;;19.07;10.70;;;3.10;99.90;;;;;;4991984;28;20205;-66
2023/03/06 04:41:41;;;;;;;18.47;12.90;;;3.10;99.90;;;;;;4992764;28;20271;-67
2023/03/06 04:44:07;;;;;;;19.17;13.20;;;3.10;99.90;;;;;;4991575;28;20219;-66
2023/03/06 04:46:33;;;;;;;15.10;12.20;;;3.10;99.90;;;;;;4992404;28;20564;-66
2023/03/06 04:48:59;;;;;;;15.17;10.77;;;3.10;99.90;;;;;;4992048;28;20203;-66
2023/03/06 04:51:25;;;;;;;19.57;14.17;;;3.00;99.90;;;;;;4991893;28;20185;-66
2023/03/06 04:53:51;;;;;;;15.00;13.17;;;3.00;99.90;;;;;;4992310;28;20181;-66
2023/03/06 04:56:17;;;;;;;19.77;15.83;;;3.00;99.90;;;;;;4992038;28;20768;-66
2023/03/06 04:58:43;;;;;;;15.13;11.77;;;3.00;99.90;;;;;;4992189;28;20201;-66
2023/03/06 05:01:08;;;;;;;12.47;11.23;;;3.00;99.90;;;;;;4989888;28;20195;-66
2023/03/06 05:03:34;;;;;;;17.80;13.10;;;3.00;99.90;;;;;;4991715;28;20200;-66
2023/03/06 05:06:00;;;;;;;16.80;12.27;;;3.00;99.90;;;;;;4992339;28;20208;-66
2023/03/06 05:08:25;;;;;;;14.13;11.03;;;3.00;99.90;;;;;;4991598;28;20299;-65
2023/03/06 05:10:59;;;;;;;14.03;11.23;;;3.00;99.90;;;;;;4992056;28;20188;-66
2023/03/06 05:13:26;;;;;;;21.30;13.47;;;3.00;99.90;;;;;;4991882;28;20259;-66
2023/03/06 05:15:51;;;;;;;17.87;11.83;;;3.00;99.90;;;;;;4992408;28;20173;-67
2023/03/06 05:18:17;;;;;;;20.93;13.70;;;3.00;99.90;;;;;;4991469;28;20211;-66
2023/03/06 05:20:43;;;;;;;19.03;13.03;;;3.00;99.90;;;;;;4992293;28;20212;-66
2023/03/06 05:23:09;;;;;;;11.90;10.00;;;3.00;99.90;;;;;;4992216;28;20192;-66
2023/03/06 05:25:38;;;;;;;11.67;10.63;;;3.00;99.90;;;;;;4992122;28;20172;-66
2023/03/06 05:28:03;;;;;;;18.03;14.00;;;3.00;99.90;;;;;;4991787;28;20191;-67
2023/03/06 05:30:29;;;;;;;14.77;12.17;;;3.00;99.90;;;;;;4989737;28;20172;-66
2023/03/06 05:32:54;;;;;;;16.97;14.20;;;3.00;99.90;;;;;;4989885;28;20193;-66
2023/03/06 05:35:22;;;;;;;19.00;12.10;;;3.00;99.90;;;;;;4991691;28;20252;-66
2023/03/06 05:37:48;;;;;;;14.73;11.50;;;3.00;99.90;;;;;;4990518;28;20241;-66
2023/03/06 05:40:15;;;;;;;15.07;13.17;;;3.00;99.90;;;;;;4991747;28;20200;-66
2023/03/06 05:42:40;;;;;;;19.73;12.00;;;3.00;99.90;;;;;;4991422;28;20212;-67
2023/03/06 05:45:07;;;;;;;21.07;12.93;;;3.00;99.90;;;;;;4992208;28;20173;-66
2023/03/06 05:47:32;;;;;;;14.80;13.17;;;3.10;99.90;;;;;;4991383;28;20264;-67
2023/03/06 05:49:58;;;;;;;14.60;12.50;;;3.10;99.90;;;;;;4991264;28;20260;-67
2023/03/06 05:52:24;;;;;;;18.13;15.70;;;3.10;99.90;;;;;;4991214;28;20168;-67
2023/03/06 05:54:52;;;;;;;24.77;13.33;;;3.10;99.90;;;;;;4992483;28;20252;-67
2023/03/06 05:57:19;;;;;;;23.53;13.87;;;3.10;99.90;;;;;;4995389;28;20243;-66
2023/03/06 05:59:45;;;;;;;14.77;12.70;;;3.20;99.90;;;;;;4995462;28;20221;-66
2023/03/06 06:02:10;;;;;;;14.73;12.87;;;3.10;99.90;;;;;;4995273;28;20566;-67
2023/03/06 06:04:36;;;;;;;17.10;13.50;;;3.10;99.90;;;;;;4995965;28;20172;-66
2023/03/06 06:07:04;;;;;;;19.10;14.20;;;3.10;99.90;;;;;;4993867;28;20663;-65
2023/03/06 06:09:30;;;;;;;17.33;12.70;;;3.20;99.90;;;;;;4994849;28;20236;-66
2023/03/06 06:12:02;;;;;;;12.37;11.13;;;3.10;99.90;;;;;;4994996;28;20204;-65
2023/03/06 06:14:29;;;;;;;13.27;11.17;;;3.10;99.90;;;;;;4995040;28;20180;-65
2023/03/06 06:16:55;;;;;;;17.17;11.00;;;3.10;99.90;;;;;;4995315;28;20169;-66
2023/03/06 06:19:21;;;;;;;17.17;11.40;;;3.10;99.90;;;;;;4995024;28;20552;-66
2023/03/06 06:21:52;;;;;;;14.37;12.23;;;3.00;99.90;;;;;;4995219;28;20658;-66
2023/03/06 06:24:21;;;;;;;14.33;11.33;;;3.00;99.90;;;;;;4995242;28;20239;-66
2023/03/06 06:26:50;;;;;;;20.67;13.27;;;3.10;99.90;;;;;;4994863;28;20184;-66
2023/03/06 06:29:16;;;;;;;19.53;12.10;;;3.10;99.90;;;;;;4994827;28;20181;-66
2023/03/06 06:31:42;;;;;;;15.50;12.20;;;3.10;99.90;;;;;;4994646;28;20180;-67
2023/03/06 06:34:09;;;;;;;14.60;11.03;;;3.10;99.90;;;;;;4994929;28;20205;-66
2023/03/06 06:36:35;;;;;;;17.47;11.03;;;3.10;99.90;;;;;;4994717;28;20216;-66
2023/03/06 06:39:02;;;;;;;17.63;11.63;;;3.10;99.90;;;;;;4992685;28;20279;-66
2023/03/06 06:41:28;;;;;;;17.67;13.97;;;3.10;99.90;;;;;;4994659;28;20643;-66
2023/03/06 06:43:54;;;;;;;18.43;12.93;;;3.10;99.90;;;;;;4993842;28;20197;-66
2023/03/06 06:46:19;;;;;;;23.77;12.03;;;3.20;99.90;;;;;;4994533;28;20188;-67
2023/03/06 06:48:48;;;;;;;14.37;12.90;;;3.10;99.90;;;;;;4995069;28;20212;-66
2023/03/06 06:51:14;;;;;;;13.30;11.97;;;3.20;99.90;;;;;;4994316;28;20188;-66
2023/03/06 06:53:39;;;;;;;15.87;12.37;;;3.10;99.90;;;;;;4994886;28;20577;-66
2023/03/06 06:56:05;;;;;;;14.47;12.97;;;3.20;99.90;;;;;;4994575;28;20180;-65
2023/03/06 06:58:31;;;;;;;13.47;12.17;;;3.20;99.90;;;;;;4994096;28;20200;-67
2023/03/06 07:00:56;;;;;;;13.33;12.10;;;3.20;99.90;;;;;;4994394;28;20184;-66
2023/03/06 07:03:22;;;;;;;15.43;11.97;;;3.30;99.90;;;;;;4994212;28;20267;-67
2023/03/06 07:05:54;;;;;;;14.30;11.47;;;3.30;99.90;;;;;;4995005;28;20195;-66
2023/03/06 07:08:20;;;;;;;12.40;11.07;;;3.30;99.90;;;;;;4993382;28;20275;-67
2023/03/06 07:10:46;;;;;;;17.40;12.33;;;3.30;99.90;;;;;;4993660;28;20193;-66
2023/03/06 07:13:11;;;;;;;15.20;13.60;;;3.40;99.90;;;;;;4992585;28;20184;-66
2023/03/06 07:15:37;;;;;;;17.03;14.60;;;3.40;99.90;;;;;;4994370;28;20185;-66
2023/03/06 07:18:03;;;;;;;17.50;14.50;;;3.50;99.90;;;;;;4994364;28;20668;-66
2023/03/06 07:20:28;;;;;;;15.93;12.80;;;3.50;99.90;;;;;;4993826;28;20180;-66
2023/03/06 07:22:54;;;;;;;23.07;14.10;;;3.50;99.90;;;;;;4994192;28;20237;-66
2023/03/06 07:25:20;;;;;;;14.33;12.23;;;3.50;99.90;;;;;;4993825;28;20181;-66
2023/03/06 07:27:45;;;;;;;18.50;14.07;;;3.50;99.90;;;;;;4994067;28;20216;-66
2023/03/06 07:30:12;;;;;;;16.80;14.53;;;3.50;99.90;;;;;;4993750;28;20200;-66
2023/03/06 07:32:38;;;;;;;14.47;13.13;;;3.60;99.90;;;;;;4993590;28;20644;-67
2023/03/06 07:35:04;;;;;;;18.27;14.80;;;3.60;99.90;;;;;;4994152;28;20180;-66
2023/03/06 07:37:30;;;;;;;28.33;16.87;;;3.60;99.90;;;;;;4993607;28;20481;-67
2023/03/06 07:39:55;;;;;;;22.87;15.47;;;3.70;99.90;;;;;;4993758;28;20165;-67
2023/03/06 07:42:21;;;;;;;16.57;15.00;;;3.70;99.90;;;;;;4993505;28;20181;-66
2023/03/06 07:44:46;;;;;;;19.50;15.80;;;3.70;99.90;;;;;;4992531;28;20189;-66
2023/03/06 07:47:12;;;;;;;22.80;15.90;;;3.70;99.90;;;;;;4993618;28;20177;-67
2023/03/06 07:49:38;;;;;;;19.27;13.10;;;3.70;99.90;;;;;;4993214;28;20729;-66
2023/03/06 07:52:04;;;;;;;22.07;17.30;;;3.80;99.90;;;;;;4993557;28;20172;-66
2023/03/06 07:54:31;;;;;;;25.80;16.23;;;3.90;99.90;;;;;;4993237;28;20669;-66
2023/03/06 07:56:57;;;;;;;18.67;16.13;;;3.90;99.90;;;;;;4993375;28;20264;-65
2023/03/06 07:59:22;;;;;;;23.40;14.80;;;4.00;99.90;;;;;;4993070;28;20794;-66
2023/03/06 08:01:48;;;;;;;22.93;16.43;;;4.00;99.90;;;;;;4993733;28;20176;-66
2023/03/06 08:04:14;;;;;;;19.17;15.43;;;4.00;99.90;;;;;;4993806;28;20670;-66
2023/03/06 08:06:39;;;;;;;18.43;14.43;;;4.00;99.90;;;;;;4993372;28;20169;-65
2023/03/06 08:09:05;;;;;;;22.60;14.90;;;4.00;99.90;;;;;;4993823;28;20208;-66
2023/03/06 08:11:32;;;;;;;18.77;13.47;;;4.10;99.90;;;;;;4993580;28;20259;-66
2023/03/06 08:13:58;;;;;;;21.17;16.30;;;4.00;99.90;;;;;;4993587;28;20562;-66
2023/03/06 08:16:27;;;;;;;17.13;14.70;;;4.00;99.90;;;;;;4992148;28;20180;-66
2023/03/06 08:18:53;;;;;;;21.40;16.23;;;4.00;99.90;;;;;;4993090;28;20287;-66
2023/03/06 08:21:22;;;;;;;24.67;15.87;;;4.10;99.90;;;;;;4993077;28;20631;-66
2023/03/06 08:23:48;;;;;;;21.37;16.67;;;4.20;99.90;;;;;;4993049;28;20212;-66
2023/03/06 08:26:16;;;;;;;24.27;16.30;;;4.20;99.90;;;;;;4992255;28;20177;-66
2023/03/06 08:28:42;;;;;;;26.60;16.90;;;4.40;99.90;;;;;;4973870;28;20604;-66
2023/03/06 08:31:12;;;;;;;19.80;16.00;;;4.50;99.90;;;;;;4972861;28;20252;-66
2023/03/06 08:33:39;;;;;;;23.77;14.83;;;4.60;99.90;;;;;;4992590;28;20308;-66
2023/03/06 08:36:05;;;;;;;14.77;11.63;;;4.60;99.90;;;;;;4992937;28;20189;-64
2023/03/06 08:38:30;;;;;;;28.33;15.63;;;4.60;99.90;;;;;;4992817;28;20199;-65
2023/03/06 08:40:56;;;;;;;21.70;15.03;;;4.60;99.90;;;;;;4992346;28;20725;-64
2023/03/06 08:43:22;;;;;;;21.03;13.57;;;4.50;99.90;;;;;;4992655;28;20310;-64
2023/03/06 08:45:52;;;;;;;18.03;14.37;;;4.50;99.90;;;;;;4991500;28;20181;-65
2023/03/06 08:48:17;;;;;;;19.07;12.57;;;4.50;99.90;;;;;;4992367;28;20288;-65
2023/03/06 08:50:43;;;;;;;21.23;13.67;;;4.50;99.90;;;;;;4992132;28;20264;-65
2023/03/06 08:53:09;;;;;;;21.23;13.93;;;4.60;99.90;;;;;;4992700;28;20669;-64
2023/03/06 08:55:36;;;;;;;23.57;16.67;;;4.70;99.90;;;;;;4992516;28;20185;-65
2023/03/06 08:58:03;;;;;;;18.27;14.27;;;4.80;99.90;;;;;;4987993;28;20200;-64
2023/03/06 09:00:32;;;;;;;23.27;13.50;;;4.90;99.90;;;;;;4991985;28;20211;-65
2023/03/06 09:02:57;;;;;;;18.47;14.87;;;5.00;99.90;;;;;;4987863;28;20200;-65
2023/03/06 09:05:23;;;;;;;27.07;15.10;;;5.10;99.90;;;;;;4992231;28;20669;-64
2023/03/06 09:07:49;;;;;;;29.40;15.57;;;5.30;99.90;;;;;;4992171;28;20291;-65
2023/03/06 09:10:17;;;;;;;13.40;11.17;;;5.50;99.90;;;;;;4990483;28;20230;-65
2023/03/06 09:12:43;;;;;;;24.83;15.13;;;5.60;99.90;;;;;;4992276;28;20179;-65
2023/03/06 09:15:10;;;;;;;17.30;13.83;;;5.60;99.90;;;;;;4992316;28;20181;-64
2023/03/06 09:17:35;;;;;;;19.37;15.53;;;5.70;99.90;;;;;;4992542;28;20176;-65
2023/03/06 09:20:01;;;;;;;18.83;13.07;;;5.90;99.90;;;;;;4992672;28;20171;-65
2023/03/06 09:22:26;;;;;;;25.33;14.37;;;5.90;99.90;;;;;;4991374;28;20520;-65
2023/03/06 09:24:52;;;;;;;26.40;14.13;;;5.90;99.90;;;;;;4992127;28;20169;-65
2023/03/06 09:27:18;;;;;;;17.60;11.80;;;5.80;99.90;;;;;;4992446;28;20236;-65
2023/03/06 09:29:44;;;;;;;20.43;16.20;;;5.70;99.90;;;;;;4991602;28;20193;-65
2023/03/06 09:32:09;;;;;;;16.40;12.07;;;5.60;99.90;;;;;;4992187;28;20165;-64
2023/03/06 09:34:35;;;;;;;18.07;12.77;;;5.60;99.90;;;;;;4992047;28;20638;-65
2023/03/06 09:37:01;;;;;;;19.40;14.03;;;5.60;99.90;;;;;;4992032;28;20177;-65
2023/03/06 09:39:27;;;;;;;22.40;13.60;;;5.60;99.90;;;;;;4991805;28;20239;-65
2023/03/06 09:41:56;;;;;;;16.93;12.83;;;5.80;99.90;;;;;;4992181;28;20209;-65
2023/03/06 09:44:31;;;;;;;21.97;13.90;;;5.80;99.90;;;;;;4992195;28;20267;-65
2023/03/06 09:47:28;;;;;;;17.07;13.23;;;5.90;99.90;;;;;;4992082;28;20176;-65
2023/03/06 09:50:11;;;;;;;22.27;12.50;;;5.90;99.90;;;;;;4981005;28;20292;-65
2023/03/06 09:52:54;;;;;;;17.83;12.93;;;6.00;99.90;;;;;;4991984;28;20543;-65
2023/03/06 09:55:26;;;;;;;14.43;11.93;;;5.90;99.90;;;;;;4992051;28;20342;-65
2023/03/06 09:58:24;;;;;;;13.47;11.80;;;6.00;99.90;;;;;;4991862;28;20678;-65
2023/03/06 10:01:16;;;;;;;20.50;11.97;;;6.00;99.90;;;;;;4991556;28;20658;-65
2023/03/06 10:03:48;;;;;;;14.07;12.50;;;6.10;99.90;;;;;;4991209;28;20287;-65
2023/03/06 10:06:25;;;;;;;14.67;10.97;;;6.10;99.90;;;;;;4991880;28;20173;-65
2023/03/06 10:09:11;;;;;;;19.70;12.23;;;6.20;99.90;;;;;;4986120;28;20220;-65
2023/03/06 10:12:02;;;;;;;15.60;13.23;;;6.10;99.90;;;;;;4988640;28;20184;-64
2023/03/06 10:14:34;;;;;;;12.97;11.53;;;6.00;99.90;;;;;;4991757;28;20173;-64
2023/03/06 10:17:00;;;;;;;14.20;11.07;;;5.90;99.90;;;;;;4990677;28;20468;-65
2023/03/06 10:19:35;;;;;;;11.73;10.57;;;5.80;99.90;;;;;;4991504;28;20220;-64
2023/03/06 10:22:03;;;;;;;15.83;11.77;;;5.70;99.90;;;;;;4991639;28;20172;-64
2023/03/06 10:24:45;;;;;;;13.67;10.07;;;5.60;99.90;;;;;;4991504;28;20203;-64
2023/03/06 10:27:32;;;;;;;10.07;9.10;;;5.50;99.90;;;;;;4991580;28;20165;-64
2023/03/06 10:30:13;;;;;;;12.73;11.23;;;5.40;99.90;;;;;;4991403;28;20679;-64
2023/03/06 10:32:53;;;;;;;14.20;10.20;;;5.30;99.90;;;;;;4991669;28;20677;-64
2023/03/06 10:35:43;;;;;;;13.37;12.03;;;5.10;99.90;;;;;;4991559;28;20175;-64
2023/03/06 10:38:26;;;;;;;14.73;11.00;;;4.90;99.90;;;;;;4991577;28;20678;-64
2023/03/06 10:41:10;;;;;;;14.37;11.47;;;4.80;99.90;;;;;;4991046;28;20199;-65
2023/03/06 10:43:38;;;;;;;14.30;11.17;;;4.90;99.90;;;;;;4994508;28;20291;-64
2023/03/06 10:46:06;;;;;;;18.13;11.97;;;4.90;99.90;;;;;;4994992;28;20185;-64
2023/03/06 10:48:34;;;;;;;13.97;10.90;;;5.00;99.90;;;;;;4994537;28;20207;-65
2023/03/06 10:51:22;;;;;;;14.87;11.47;;;5.20;99.90;;;;;;4993246;28;20722;-65
2023/03/06 10:53:54;;;;;;;11.83;10.33;;;5.20;99.90;;;;;;4994567;28;20185;-65
2023/03/06 10:56:28;;;;;;;14.03;11.83;;;5.20;99.90;;;;;;4994906;28;20176;-65
2023/03/06 10:59:27;;;;;;;14.60;11.80;;;5.10;99.90;;;;;;4994388;28;20255;-65
2023/03/06 11:02:12;;;;;;;12.03;10.90;;;5.10;99.90;;;;;;4990311;28;20188;-65
2023/03/06 11:04:39;;;;;;;13.70;10.83;;;5.00;99.90;;;;;;4995087;28;20191;-65
2023/03/06 11:07:12;;;;;;;12.17;10.50;;;5.00;99.90;;;;;;4995081;28;20243;-66
2023/03/06 11:09:38;;;;;;;13.50;12.07;;;4.90;99.90;;;;;;4994002;28;20220;-66
2023/03/06 11:12:22;;;;;;;12.93;11.33;;;4.90;99.90;;;;;;4994684;28;20185;-65
2023/03/06 11:15:06;;;;;;;14.03;12.53;;;5.00;99.90;;;;;;4994757;28;20176;-66
2023/03/06 11:17:32;;;;;;;12.20;10.90;;;5.00;99.90;;;;;;4994711;28;20597;-66
2023/03/06 11:20:19;;;;;;;15.23;11.50;;;5.00;99.90;;;;;;4993917;28;20724;-66
2023/03/06 11:22:58;;;;;;;14.67;12.23;;;5.00;99.90;;;;;;4993953;28;20196;-65
2023/03/06 11:25:33;;;;;;;11.30;9.83;;;5.10;99.90;;;;;;4980467;28;20292;-66
2023/03/06 11:28:05;;;;;;;14.50;10.33;;;5.10;99.90;;;;;;4993913;28;20232;-65
2023/03/06 11:30:45;;;;;;;12.30;10.03;;;5.10;99.90;;;;;;4993609;28;20603;-65
2023/03/06 11:33:24;;;;;;;17.03;9.87;;;5.10;99.90;;;;;;4993593;28;20603;-65
2023/03/06 11:35:58;;;;;;;11.27;10.17;;;5.10;99.90;;;;;;4993868;28;20195;-65
2023/03/06 11:38:42;;;;;;;19.33;10.77;;;5.30;99.90;;;;;;4993539;28;20694;-65
2023/03/06 11:41:22;;;;;;;12.07;9.73;;;5.40;99.90;;;;;;4980724;28;20192;-65
2023/03/06 11:44:21;;;;;;;13.03;9.10;;;5.50;99.90;;;;;;4993543;28;20299;-65
2023/03/06 11:46:52;;;;;;;13.37;9.87;;;5.60;99.90;;;;;;4993584;28;20595;-65
2023/03/06 11:49:37;;;;;;;12.10;10.47;;;5.60;99.90;;;;;;4993144;28;20201;-65
2023/03/06 11:52:09;;;;;;;9.03;8.10;;;5.50;99.90;;;;;;4993858;28;20586;-65
2023/03/06 11:54:35;;;;;;;12.67;9.73;;;5.50;99.90;;;;;;4993466;28;20189;-66
2023/03/06 11:57:03;;;;;;;12.87;9.33;;;5.40;99.90;;;;;;4993478;28;20200;-65
2023/03/06 12:00:02;;;;;;;12.87;9.73;;;5.40;99.90;;;;;;4993250;28;20300;-65
2023/03/06 12:02:38;;;;;;;7.53;6.57;;;5.30;99.90;;;;;;4993049;28;20184;-65
2023/03/06 12:05:45;;;;;;;11.10;10.00;;;5.20;99.90;;;;;;4993219;28;20184;-65
2023/03/06 12:08:31;;;;;;;12.60;9.87;;;5.10;99.90;;;;;;4986433;28;20216;-66
2023/03/06 12:11:07;;;;;;;10.17;9.17;;;4.90;99.90;;;;;;4990893;28;20651;-65
2023/03/06 12:13:57;;;;;;;15.60;12.83;;;4.90;99.90;;;;;;4981748;28;20188;-65
2023/03/06 12:16:47;;;;;;;10.47;9.33;;;4.80;99.90;;;;;;4992946;28;20227;-66
2023/03/06 12:19:25;;;;;;;12.67;11.10;;;4.90;99.90;;;;;;4993131;28;20636;-65
2023/03/06 12:21:57;;;;;;;15.90;11.33;;;4.90;99.90;;;;;;4991431;28;20584;-65
2023/03/06 12:24:39;;;;;;;12.50;8.40;;;4.90;99.90;;;;;;4992779;28;20243;-65
2023/03/06 12:27:37;;;;;;;13.00;11.80;;;4.90;99.90;;;;;;4992963;28;20180;-65
2023/03/06 12:30:14;;;;;;;15.83;12.33;;;4.90;99.90;;;;;;4991353;28;20181;-66
2023/03/06 12:32:52;;;;;;;17.63;11.57;;;5.00;99.90;;;;;;4993150;28;20176;-66
2023/03/06 12:35:26;;;;;;;14.07;11.07;;;4.90;99.90;;;;;;4993218;28;20191;-65
2023/03/06 12:37:55;;;;;;;10.07;9.07;;;4.90;99.90;;;;;;4993047;28;20204;-64
2023/03/06 12:40:29;;;;;;;12.23;10.93;;;4.90;99.90;;;;;;4992360;28;20212;-65
2023/03/06 12:43:32;;;;;;;15.93;11.40;;;4.90;99.90;;;;;;4992857;28;20204;-66
2023/03/06 12:46:23;;;;;;;10.83;9.90;;;5.00;99.90;;;;;;4979033;28;20657;-65
2023/03/06 12:49:09;;;;;;;14.17;11.10;;;5.00;99.90;;;;;;4992033;28;20212;-65
2023/03/06 12:51:38;;;;;;;11.37;9.57;;;5.00;99.90;;;;;;4992553;28;20177;-65